sensor_id;sensor_type;location;lat;lon;timestamp;P1;durP1;ratioP1;P2;durP2;ratioP2
19907;SDS011;10116;53.112;7.356;2022-12-11T00:01:50;10.33;;;8.47;;
19907;SDS011;10116;53.112;7.356;2022-12-11T00:04:16;9.80;;;8.47;;
19907;SDS011;10116;53.112;7.356;2022-12-11T00:06:42;9.30;;;8.40;;
19907;SDS011;10116;53.112;7.356;2022-12-11T00:09:08;9.23;;;7.67;;
19907;SDS011;10116;53.112;7.356;2022-12-11T00:11:33;8.93;;;7.93;;
19907;SDS011;10116;53.112;7.356;2022-12-11T00:13:59;8.20;;;7.33;;
19907;SDS011;10116;53.112;7.356;2022-12-11T00:16:25;8.67;;;7.77;;
19907;SDS011;10116;53.112;7.356;2022-12-11T00:18:50;9.07;;;7.80;;
19907;SDS011;10116;53.112;7.356;2022-12-11T00:21:16;8.53;;;7.63;;
19907;SDS011;10116;53.112;7.356;2022-12-11T00:23:41;8.17;;;7.47;;
19907;SDS011;10116;53.112;7.356;2022-12-11T00:26:08;8.07;;;7.23;;
19907;SDS011;10116;53.112;7.356;2022-12-11T00:28:37;9.40;;;8.07;;
19907;SDS011;10116;53.112;7.356;2022-12-11T00:31:06;9.80;;;7.20;;
19907;SDS011;10116;53.112;7.356;2022-12-11T00:33:34;8.30;;;7.30;;
19907;SDS011;10116;53.112;7.356;2022-12-11T00:35:59;8.43;;;7.63;;
19907;SDS011;10116;53.112;7.356;2022-12-11T00:38:25;9.50;;;7.43;;
19907;SDS011;10116;53.112;7.356;2022-12-11T00:40:51;8.30;;;7.47;;
19907;SDS011;10116;53.112;7.356;2022-12-11T00:43:17;7.60;;;6.73;;
19907;SDS011;10116;53.112;7.356;2022-12-11T00:45:43;7.03;;;6.43;;
19907;SDS011;10116;53.112;7.356;2022-12-11T00:48:10;7.60;;;6.87;;
19907;SDS011;10116;53.112;7.356;2022-12-11T00:50:37;8.07;;;7.23;;
19907;SDS011;10116;53.112;7.356;2022-12-11T00:53:03;8.33;;;6.90;;
19907;SDS011;10116;53.112;7.356;2022-12-11T00:55:30;7.43;;;6.50;;
19907;SDS011;10116;53.112;7.356;2022-12-11T00:57:56;9.13;;;7.17;;
19907;SDS011;10116;53.112;7.356;2022-12-11T01:00:22;8.77;;;7.50;;
19907;SDS011;10116;53.112;7.356;2022-12-11T01:02:49;7.90;;;7.10;;
19907;SDS011;10116;53.112;7.356;2022-12-11T01:05:15;7.47;;;6.73;;
19907;SDS011;10116;53.112;7.356;2022-12-11T01:07:41;8.10;;;7.30;;
19907;SDS011;10116;53.112;7.356;2022-12-11T01:10:06;8.50;;;7.10;;
19907;SDS011;10116;53.112;7.356;2022-12-11T01:15:27;8.17;;;6.93;;
19907;SDS011;10116;53.112;7.356;2022-12-11T01:17:54;7.63;;;6.93;;
19907;SDS011;10116;53.112;7.356;2022-12-11T01:20:21;7.80;;;7.07;;
19907;SDS011;10116;53.112;7.356;2022-12-11T01:22:47;7.77;;;6.97;;
19907;SDS011;10116;53.112;7.356;2022-12-11T01:25:16;8.77;;;7.63;;
19907;SDS011;10116;53.112;7.356;2022-12-11T01:27:42;7.90;;;7.10;;
19907;SDS011;10116;53.112;7.356;2022-12-11T01:30:08;7.67;;;6.90;;
19907;SDS011;10116;53.112;7.356;2022-12-11T01:32:34;7.30;;;6.60;;
19907;SDS011;10116;53.112;7.356;2022-12-11T01:35:04;7.10;;;6.40;;
19907;SDS011;10116;53.112;7.356;2022-12-11T01:37:31;7.77;;;7.00;;
19907;SDS011;10116;53.112;7.356;2022-12-11T01:39:57;7.23;;;6.53;;
19907;SDS011;10116;53.112;7.356;2022-12-11T01:42:23;7.63;;;6.83;;
19907;SDS011;10116;53.112;7.356;2022-12-11T01:47:14;7.33;;;6.63;;
19907;SDS011;10116;53.112;7.356;2022-12-11T01:49:41;7.17;;;6.47;;
19907;SDS011;10116;53.112;7.356;2022-12-11T01:52:11;7.03;;;6.33;;
19907;SDS011;10116;53.112;7.356;2022-12-11T01:54:42;6.83;;;6.23;;
19907;SDS011;10116;53.112;7.356;2022-12-11T01:57:08;7.47;;;6.77;;
19907;SDS011;10116;53.112;7.356;2022-12-11T01:59:37;7.53;;;6.77;;
19907;SDS011;10116;53.112;7.356;2022-12-11T02:02:07;6.70;;;6.10;;
19907;SDS011;10116;53.112;7.356;2022-12-11T02:04:44;6.60;;;6.00;;
19907;SDS011;10116;53.112;7.356;2022-12-11T02:07:12;6.00;;;5.40;;
19907;SDS011;10116;53.112;7.356;2022-12-11T02:09:38;5.67;;;5.17;;
19907;SDS011;10116;53.112;7.356;2022-12-11T02:12:09;6.33;;;5.77;;
19907;SDS011;10116;53.112;7.356;2022-12-11T02:14:43;6.03;;;5.43;;
19907;SDS011;10116;53.112;7.356;2022-12-11T02:17:21;6.50;;;5.87;;
19907;SDS011;10116;53.112;7.356;2022-12-11T02:25:36;6.20;;;5.60;;
19907;SDS011;10116;53.112;7.356;2022-12-11T02:31:13;7.00;;;5.87;;
19907;SDS011;10116;53.112;7.356;2022-12-11T02:36:15;5.70;;;5.20;;
19907;SDS011;10116;53.112;7.356;2022-12-11T02:38:44;6.13;;;5.53;;
19907;SDS011;10116;53.112;7.356;2022-12-11T02:41:14;5.30;;;4.80;;
19907;SDS011;10116;53.112;7.356;2022-12-11T02:43:43;5.23;;;4.73;;
19907;SDS011;10116;53.112;7.356;2022-12-11T02:46:10;11.80;;;5.20;;
19907;SDS011;10116;53.112;7.356;2022-12-11T02:48:38;5.53;;;5.13;;
19907;SDS011;10116;53.112;7.356;2022-12-11T02:51:05;6.23;;;5.63;;
19907;SDS011;10116;53.112;7.356;2022-12-11T02:53:33;6.93;;;6.33;;
19907;SDS011;10116;53.112;7.356;2022-12-11T02:56:07;6.30;;;5.73;;
19907;SDS011;10116;53.112;7.356;2022-12-11T02:58:52;6.03;;;5.53;;
19907;SDS011;10116;53.112;7.356;2022-12-11T03:01:32;6.13;;;5.63;;
19907;SDS011;10116;53.112;7.356;2022-12-11T03:03:58;7.37;;;6.67;;
19907;SDS011;10116;53.112;7.356;2022-12-11T03:06:25;6.10;;;5.60;;
19907;SDS011;10116;53.112;7.356;2022-12-11T03:08:56;6.70;;;6.10;;
19907;SDS011;10116;53.112;7.356;2022-12-11T03:11:21;5.77;;;5.27;;
19907;SDS011;10116;53.112;7.356;2022-12-11T03:13:47;6.77;;;6.07;;
19907;SDS011;10116;53.112;7.356;2022-12-11T03:21:45;5.53;;;5.03;;
19907;SDS011;10116;53.112;7.356;2022-12-11T03:24:19;5.70;;;5.30;;
19907;SDS011;10116;53.112;7.356;2022-12-11T03:26:54;5.57;;;5.07;;
19907;SDS011;10116;53.112;7.356;2022-12-11T03:29:25;5.63;;;5.13;;
19907;SDS011;10116;53.112;7.356;2022-12-11T03:32:10;6.10;;;5.60;;
19907;SDS011;10116;53.112;7.356;2022-12-11T03:37:31;6.07;;;5.50;;
19907;SDS011;10116;53.112;7.356;2022-12-11T03:40:02;4.73;;;4.43;;
19907;SDS011;10116;53.112;7.356;2022-12-11T03:42:31;4.97;;;4.57;;
19907;SDS011;10116;53.112;7.356;2022-12-11T03:44:58;5.30;;;4.90;;
19907;SDS011;10116;53.112;7.356;2022-12-11T03:47:25;5.30;;;4.83;;
19907;SDS011;10116;53.112;7.356;2022-12-11T03:49:52;5.63;;;5.00;;
19907;SDS011;10116;53.112;7.356;2022-12-11T03:52:20;5.10;;;4.80;;
19907;SDS011;10116;53.112;7.356;2022-12-11T03:54:47;5.37;;;4.90;;
19907;SDS011;10116;53.112;7.356;2022-12-11T03:57:15;5.23;;;4.83;;
19907;SDS011;10116;53.112;7.356;2022-12-11T03:59:45;5.80;;;5.30;;
19907;SDS011;10116;53.112;7.356;2022-12-11T04:02:11;4.60;;;4.30;;
19907;SDS011;10116;53.112;7.356;2022-12-11T04:04:37;5.30;;;4.87;;
19907;SDS011;10116;53.112;7.356;2022-12-11T04:07:04;5.00;;;4.60;;
19907;SDS011;10116;53.112;7.356;2022-12-11T04:09:29;5.40;;;4.90;;
19907;SDS011;10116;53.112;7.356;2022-12-11T04:11:55;4.97;;;4.57;;
19907;SDS011;10116;53.112;7.356;2022-12-11T04:14:21;4.80;;;4.40;;
19907;SDS011;10116;53.112;7.356;2022-12-11T04:17:05;4.63;;;4.23;;
19907;SDS011;10116;53.112;7.356;2022-12-11T04:19:30;5.50;;;5.10;;
19907;SDS011;10116;53.112;7.356;2022-12-11T04:22:15;5.17;;;4.73;;
19907;SDS011;10116;53.112;7.356;2022-12-11T04:25:00;5.20;;;4.70;;
19907;SDS011;10116;53.112;7.356;2022-12-11T04:27:26;5.30;;;4.80;;
19907;SDS011;10116;53.112;7.356;2022-12-11T04:30:18;5.40;;;4.90;;
19907;SDS011;10116;53.112;7.356;2022-12-11T04:32:46;4.67;;;4.27;;
19907;SDS011;10116;53.112;7.356;2022-12-11T04:35:12;5.00;;;4.60;;
19907;SDS011;10116;53.112;7.356;2022-12-11T04:37:38;6.00;;;5.50;;
19907;SDS011;10116;53.112;7.356;2022-12-11T04:40:05;5.23;;;4.73;;
19907;SDS011;10116;53.112;7.356;2022-12-11T04:42:33;5.27;;;4.77;;
19907;SDS011;10116;53.112;7.356;2022-12-11T04:44:59;5.70;;;5.20;;
19907;SDS011;10116;53.112;7.356;2022-12-11T04:47:24;5.37;;;4.97;;
19907;SDS011;10116;53.112;7.356;2022-12-11T04:49:50;5.63;;;5.23;;
19907;SDS011;10116;53.112;7.356;2022-12-11T04:52:16;4.97;;;4.47;;
19907;SDS011;10116;53.112;7.356;2022-12-11T04:54:42;5.93;;;5.43;;
19907;SDS011;10116;53.112;7.356;2022-12-11T04:57:07;6.50;;;5.80;;
19907;SDS011;10116;53.112;7.356;2022-12-11T04:59:34;5.80;;;5.30;;
19907;SDS011;10116;53.112;7.356;2022-12-11T05:02:01;5.70;;;5.20;;
19907;SDS011;10116;53.112;7.356;2022-12-11T05:04:31;6.43;;;5.80;;
19907;SDS011;10116;53.112;7.356;2022-12-11T05:06:57;5.50;;;5.00;;
19907;SDS011;10116;53.112;7.356;2022-12-11T05:09:23;5.83;;;5.30;;
19907;SDS011;10116;53.112;7.356;2022-12-11T05:11:50;5.67;;;5.17;;
19907;SDS011;10116;53.112;7.356;2022-12-11T05:14:16;5.90;;;5.40;;
19907;SDS011;10116;53.112;7.356;2022-12-11T05:16:42;6.90;;;6.10;;
19907;SDS011;10116;53.112;7.356;2022-12-11T05:19:07;6.00;;;5.50;;
19907;SDS011;10116;53.112;7.356;2022-12-11T05:21:33;6.20;;;5.60;;
19907;SDS011;10116;53.112;7.356;2022-12-11T05:23:59;5.00;;;4.60;;
19907;SDS011;10116;53.112;7.356;2022-12-11T05:26:24;5.63;;;5.10;;
19907;SDS011;10116;53.112;7.356;2022-12-11T05:28:51;5.20;;;4.70;;
19907;SDS011;10116;53.112;7.356;2022-12-11T05:31:19;5.50;;;5.00;;
19907;SDS011;10116;53.112;7.356;2022-12-11T05:33:46;5.37;;;4.90;;
19907;SDS011;10116;53.112;7.356;2022-12-11T05:36:18;5.23;;;4.80;;
19907;SDS011;10116;53.112;7.356;2022-12-11T05:38:46;5.10;;;4.70;;
19907;SDS011;10116;53.112;7.356;2022-12-11T05:41:15;4.77;;;4.37;;
19907;SDS011;10116;53.112;7.356;2022-12-11T05:43:43;5.03;;;4.63;;
19907;SDS011;10116;53.112;7.356;2022-12-11T05:46:10;5.40;;;5.00;;
19907;SDS011;10116;53.112;7.356;2022-12-11T05:48:56;4.30;;;4.00;;
19907;SDS011;10116;53.112;7.356;2022-12-11T05:51:23;5.67;;;5.20;;
19907;SDS011;10116;53.112;7.356;2022-12-11T05:53:50;4.70;;;4.30;;
19907;SDS011;10116;53.112;7.356;2022-12-11T05:56:20;5.67;;;5.10;;
19907;SDS011;10116;53.112;7.356;2022-12-11T05:58:48;5.13;;;4.70;;
19907;SDS011;10116;53.112;7.356;2022-12-11T06:01:16;5.50;;;5.00;;
19907;SDS011;10116;53.112;7.356;2022-12-11T06:03:52;4.37;;;4.07;;
19907;SDS011;10116;53.112;7.356;2022-12-11T06:06:19;5.10;;;4.70;;
19907;SDS011;10116;53.112;7.356;2022-12-11T06:08:45;5.10;;;4.70;;
19907;SDS011;10116;53.112;7.356;2022-12-11T06:11:13;5.47;;;4.97;;
19907;SDS011;10116;53.112;7.356;2022-12-11T06:13:38;4.67;;;4.27;;
19907;SDS011;10116;53.112;7.356;2022-12-11T06:16:05;4.10;;;3.80;;
19907;SDS011;10116;53.112;7.356;2022-12-11T06:18:34;5.13;;;4.63;;
19907;SDS011;10116;53.112;7.356;2022-12-11T06:21:13;4.93;;;4.53;;
19907;SDS011;10116;53.112;7.356;2022-12-11T06:23:44;5.13;;;4.70;;
19907;SDS011;10116;53.112;7.356;2022-12-11T06:26:11;5.10;;;4.70;;
19907;SDS011;10116;53.112;7.356;2022-12-11T06:28:37;4.80;;;4.40;;
19907;SDS011;10116;53.112;7.356;2022-12-11T06:31:04;4.17;;;3.87;;
19907;SDS011;10116;53.112;7.356;2022-12-11T06:33:30;4.80;;;4.40;;
19907;SDS011;10116;53.112;7.356;2022-12-11T06:35:59;4.80;;;4.40;;
19907;SDS011;10116;53.112;7.356;2022-12-11T06:38:26;4.70;;;4.30;;
19907;SDS011;10116;53.112;7.356;2022-12-11T06:40:58;4.90;;;4.47;;
19907;SDS011;10116;53.112;7.356;2022-12-11T06:43:26;5.20;;;4.80;;
19907;SDS011;10116;53.112;7.356;2022-12-11T06:45:52;5.93;;;5.37;;
19907;SDS011;10116;53.112;7.356;2022-12-11T06:48:18;5.00;;;4.60;;
19907;SDS011;10116;53.112;7.356;2022-12-11T06:50:44;5.77;;;5.37;;
19907;SDS011;10116;53.112;7.356;2022-12-11T06:53:10;5.40;;;4.90;;
19907;SDS011;10116;53.112;7.356;2022-12-11T06:55:37;5.47;;;5.00;;
19907;SDS011;10116;53.112;7.356;2022-12-11T06:58:03;4.77;;;4.40;;
19907;SDS011;10116;53.112;7.356;2022-12-11T07:00:29;5.43;;;5.00;;
19907;SDS011;10116;53.112;7.356;2022-12-11T07:02:54;5.20;;;4.77;;
19907;SDS011;10116;53.112;7.356;2022-12-11T07:05:20;5.10;;;4.70;;
19907;SDS011;10116;53.112;7.356;2022-12-11T07:07:45;5.07;;;4.67;;
19907;SDS011;10116;53.112;7.356;2022-12-11T07:10:11;5.23;;;4.83;;
19907;SDS011;10116;53.112;7.356;2022-12-11T07:12:37;5.10;;;4.70;;
19907;SDS011;10116;53.112;7.356;2022-12-11T07:15:03;5.17;;;4.77;;
19907;SDS011;10116;53.112;7.356;2022-12-11T07:17:29;5.10;;;4.70;;
19907;SDS011;10116;53.112;7.356;2022-12-11T07:19:55;5.20;;;4.80;;
19907;SDS011;10116;53.112;7.356;2022-12-11T07:22:20;7.70;;;5.20;;
19907;SDS011;10116;53.112;7.356;2022-12-11T07:24:46;5.00;;;4.60;;
19907;SDS011;10116;53.112;7.356;2022-12-11T07:27:12;5.37;;;4.87;;
19907;SDS011;10116;53.112;7.356;2022-12-11T07:29:37;5.10;;;4.60;;
19907;SDS011;10116;53.112;7.356;2022-12-11T07:32:03;5.30;;;4.60;;
19907;SDS011;10116;53.112;7.356;2022-12-11T07:34:29;5.90;;;5.30;;
19907;SDS011;10116;53.112;7.356;2022-12-11T07:36:54;6.47;;;5.00;;
19907;SDS011;10116;53.112;7.356;2022-12-11T07:39:20;7.13;;;5.50;;
19907;SDS011;10116;53.112;7.356;2022-12-11T07:41:45;5.27;;;4.80;;
19907;SDS011;10116;53.112;7.356;2022-12-11T07:44:11;6.03;;;5.27;;
19907;SDS011;10116;53.112;7.356;2022-12-11T07:46:37;5.60;;;5.10;;
19907;SDS011;10116;53.112;7.356;2022-12-11T07:49:04;5.40;;;4.80;;
19907;SDS011;10116;53.112;7.356;2022-12-11T07:51:30;5.97;;;5.37;;
19907;SDS011;10116;53.112;7.356;2022-12-11T07:53:59;8.37;;;5.10;;
19907;SDS011;10116;53.112;7.356;2022-12-11T07:56:27;5.83;;;4.73;;
19907;SDS011;10116;53.112;7.356;2022-12-11T07:58:53;4.40;;;4.00;;
19907;SDS011;10116;53.112;7.356;2022-12-11T08:01:24;5.10;;;4.60;;
19907;SDS011;10116;53.112;7.356;2022-12-11T08:03:51;5.07;;;4.30;;
19907;SDS011;10116;53.112;7.356;2022-12-11T08:06:17;8.87;;;4.23;;
19907;SDS011;10116;53.112;7.356;2022-12-11T08:08:45;4.80;;;4.13;;
19907;SDS011;10116;53.112;7.356;2022-12-11T08:11:12;4.20;;;3.90;;
19907;SDS011;10116;53.112;7.356;2022-12-11T08:13:38;5.20;;;4.70;;
19907;SDS011;10116;53.112;7.356;2022-12-11T08:16:05;4.73;;;4.33;;
19907;SDS011;10116;53.112;7.356;2022-12-11T08:18:33;7.80;;;5.03;;
19907;SDS011;10116;53.112;7.356;2022-12-11T08:21:10;4.90;;;4.50;;
19907;SDS011;10116;53.112;7.356;2022-12-11T08:23:40;6.80;;;4.23;;
19907;SDS011;10116;53.112;7.356;2022-12-11T08:26:07;5.30;;;4.80;;
19907;SDS011;10116;53.112;7.356;2022-12-11T08:28:36;4.80;;;4.40;;
19907;SDS011;10116;53.112;7.356;2022-12-11T08:31:09;5.47;;;4.70;;
19907;SDS011;10116;53.112;7.356;2022-12-11T08:33:36;5.70;;;4.67;;
19907;SDS011;10116;53.112;7.356;2022-12-11T08:36:04;4.70;;;4.30;;
19907;SDS011;10116;53.112;7.356;2022-12-11T08:38:31;4.90;;;4.40;;
19907;SDS011;10116;53.112;7.356;2022-12-11T08:40:57;5.43;;;4.93;;
19907;SDS011;10116;53.112;7.356;2022-12-11T08:43:23;5.30;;;4.70;;
19907;SDS011;10116;53.112;7.356;2022-12-11T08:45:49;5.57;;;5.07;;
19907;SDS011;10116;53.112;7.356;2022-12-11T08:48:15;4.90;;;4.40;;
19907;SDS011;10116;53.112;7.356;2022-12-11T08:50:41;5.07;;;4.67;;
19907;SDS011;10116;53.112;7.356;2022-12-11T08:53:06;5.80;;;5.30;;
19907;SDS011;10116;53.112;7.356;2022-12-11T08:55:32;5.53;;;4.93;;
19907;SDS011;10116;53.112;7.356;2022-12-11T08:57:58;4.67;;;4.27;;
19907;SDS011;10116;53.112;7.356;2022-12-11T09:00:24;5.20;;;4.80;;
19907;SDS011;10116;53.112;7.356;2022-12-11T09:02:49;6.20;;;5.60;;
19907;SDS011;10116;53.112;7.356;2022-12-11T09:05:15;7.03;;;5.27;;
19907;SDS011;10116;53.112;7.356;2022-12-11T09:07:41;5.40;;;4.93;;
19907;SDS011;10116;53.112;7.356;2022-12-11T09:10:07;6.10;;;5.13;;
19907;SDS011;10116;53.112;7.356;2022-12-11T09:12:34;5.93;;;5.37;;
19907;SDS011;10116;53.112;7.356;2022-12-11T09:15:00;5.97;;;5.40;;
19907;SDS011;10116;53.112;7.356;2022-12-11T09:17:26;6.27;;;5.67;;
19907;SDS011;10116;53.112;7.356;2022-12-11T09:19:51;5.70;;;5.10;;
19907;SDS011;10116;53.112;7.356;2022-12-11T09:22:17;5.43;;;4.93;;
19907;SDS011;10116;53.112;7.356;2022-12-11T09:24:43;5.13;;;4.73;;
19907;SDS011;10116;53.112;7.356;2022-12-11T09:27:10;6.17;;;5.57;;
19907;SDS011;10116;53.112;7.356;2022-12-11T09:29:35;5.10;;;4.70;;
19907;SDS011;10116;53.112;7.356;2022-12-11T09:32:02;5.63;;;5.07;;
19907;SDS011;10116;53.112;7.356;2022-12-11T09:34:28;5.30;;;4.80;;
19907;SDS011;10116;53.112;7.356;2022-12-11T09:36:53;5.43;;;4.93;;
19907;SDS011;10116;53.112;7.356;2022-12-11T09:39:19;5.90;;;5.23;;
19907;SDS011;10116;53.112;7.356;2022-12-11T09:44:37;6.33;;;5.07;;
19907;SDS011;10116;53.112;7.356;2022-12-11T09:47:54;5.73;;;5.23;;
19907;SDS011;10116;53.112;7.356;2022-12-11T09:55:23;6.07;;;5.23;;
19907;SDS011;10116;53.112;7.356;2022-12-11T09:57:56;6.23;;;5.10;;
19907;SDS011;10116;53.112;7.356;2022-12-11T10:00:27;6.10;;;5.50;;
19907;SDS011;10116;53.112;7.356;2022-12-11T10:11:36;7.30;;;6.20;;
19907;SDS011;10116;53.112;7.356;2022-12-11T10:17:21;6.00;;;5.23;;
19907;SDS011;10116;53.112;7.356;2022-12-11T10:19:51;6.80;;;5.43;;
19907;SDS011;10116;53.112;7.356;2022-12-11T10:22:20;5.80;;;5.20;;
19907;SDS011;10116;53.112;7.356;2022-12-11T10:24:54;11.03;;;5.63;;
19907;SDS011;10116;53.112;7.356;2022-12-11T10:27:24;6.13;;;5.50;;
19907;SDS011;10116;53.112;7.356;2022-12-11T10:30:17;5.90;;;5.30;;
19907;SDS011;10116;53.112;7.356;2022-12-11T10:32:53;5.60;;;5.10;;
19907;SDS011;10116;53.112;7.356;2022-12-11T10:35:49;5.20;;;4.70;;
19907;SDS011;10116;53.112;7.356;2022-12-11T10:40:50;5.73;;;5.23;;
19907;SDS011;10116;53.112;7.356;2022-12-11T10:43:19;5.30;;;4.80;;
19907;SDS011;10116;53.112;7.356;2022-12-11T10:45:51;5.00;;;4.50;;
19907;SDS011;10116;53.112;7.356;2022-12-11T10:48:18;6.43;;;5.00;;
19907;SDS011;10116;53.112;7.356;2022-12-11T10:50:45;5.50;;;5.00;;
19907;SDS011;10116;53.112;7.356;2022-12-11T10:53:21;5.50;;;4.87;;
19907;SDS011;10116;53.112;7.356;2022-12-11T10:55:49;7.20;;;5.10;;
19907;SDS011;10116;53.112;7.356;2022-12-11T10:58:17;5.00;;;4.40;;
19907;SDS011;10116;53.112;7.356;2022-12-11T11:00:45;5.97;;;5.40;;
19907;SDS011;10116;53.112;7.356;2022-12-11T11:03:30;5.97;;;4.90;;
19907;SDS011;10116;53.112;7.356;2022-12-11T11:06:04;5.80;;;5.20;;
19907;SDS011;10116;53.112;7.356;2022-12-11T11:08:40;4.63;;;4.27;;
19907;SDS011;10116;53.112;7.356;2022-12-11T11:11:48;6.07;;;4.83;;
19907;SDS011;10116;53.112;7.356;2022-12-11T11:16:44;5.40;;;4.80;;
19907;SDS011;10116;53.112;7.356;2022-12-11T11:19:22;5.70;;;4.30;;
19907;SDS011;10116;53.112;7.356;2022-12-11T11:21:50;5.17;;;4.60;;
19907;SDS011;10116;53.112;7.356;2022-12-11T11:27:10;5.50;;;5.00;;
19907;SDS011;10116;53.112;7.356;2022-12-11T11:30:00;5.03;;;4.50;;
19907;SDS011;10116;53.112;7.356;2022-12-11T11:32:35;5.00;;;4.50;;
19907;SDS011;10116;53.112;7.356;2022-12-11T11:35:21;5.33;;;4.60;;
19907;SDS011;10116;53.112;7.356;2022-12-11T11:40:36;4.53;;;4.23;;
19907;SDS011;10116;53.112;7.356;2022-12-11T11:43:27;5.40;;;4.23;;
19907;SDS011;10116;53.112;7.356;2022-12-11T11:51:40;5.30;;;4.50;;
19907;SDS011;10116;53.112;7.356;2022-12-11T11:54:17;5.30;;;4.80;;
19907;SDS011;10116;53.112;7.356;2022-12-11T11:56:51;5.27;;;4.63;;
19907;SDS011;10116;53.112;7.356;2022-12-11T12:02:15;4.60;;;4.20;;
19907;SDS011;10116;53.112;7.356;2022-12-11T12:04:43;5.20;;;4.70;;
19907;SDS011;10116;53.112;7.356;2022-12-11T12:07:20;4.40;;;4.00;;
19907;SDS011;10116;53.112;7.356;2022-12-11T12:10:03;5.10;;;4.60;;
19907;SDS011;10116;53.112;7.356;2022-12-11T12:23:19;5.87;;;5.40;;
19907;SDS011;10116;53.112;7.356;2022-12-11T12:28:47;34.53;;;6.67;;
19907;SDS011;10116;53.112;7.356;2022-12-11T12:34:31;7.17;;;5.03;;
19907;SDS011;10116;53.112;7.356;2022-12-11T12:40:29;9.07;;;4.30;;
19907;SDS011;10116;53.112;7.356;2022-12-11T12:49:02;5.20;;;4.30;;
19907;SDS011;10116;53.112;7.356;2022-12-11T12:51:29;7.23;;;4.70;;
19907;SDS011;10116;53.112;7.356;2022-12-11T12:53:56;7.40;;;5.27;;
19907;SDS011;10116;53.112;7.356;2022-12-11T12:56:26;5.27;;;4.67;;
19907;SDS011;10116;53.112;7.356;2022-12-11T12:58:54;4.40;;;4.00;;
19907;SDS011;10116;53.112;7.356;2022-12-11T13:01:21;4.33;;;4.00;;
19907;SDS011;10116;53.112;7.356;2022-12-11T13:06:39;5.47;;;4.63;;
19907;SDS011;10116;53.112;7.356;2022-12-11T13:09:17;5.10;;;4.60;;
19907;SDS011;10116;53.112;7.356;2022-12-11T13:11:51;4.93;;;4.43;;
19907;SDS011;10116;53.112;7.356;2022-12-11T13:14:23;5.40;;;4.87;;
19907;SDS011;10116;53.112;7.356;2022-12-11T13:16:51;5.63;;;4.80;;
19907;SDS011;10116;53.112;7.356;2022-12-11T13:19:31;6.60;;;5.27;;
19907;SDS011;10116;53.112;7.356;2022-12-11T13:24:45;5.00;;;4.50;;
19907;SDS011;10116;53.112;7.356;2022-12-11T13:30:21;5.90;;;5.07;;
19907;SDS011;10116;53.112;7.356;2022-12-11T13:32:59;6.20;;;4.83;;
19907;SDS011;10116;53.112;7.356;2022-12-11T13:35:31;6.23;;;5.40;;
19907;SDS011;10116;53.112;7.356;2022-12-11T13:38:14;5.43;;;4.93;;
19907;SDS011;10116;53.112;7.356;2022-12-11T13:40:43;8.20;;;5.53;;
19907;SDS011;10116;53.112;7.356;2022-12-11T13:43:23;5.97;;;5.37;;
19907;SDS011;10116;53.112;7.356;2022-12-11T13:45:53;7.00;;;5.77;;
19907;SDS011;10116;53.112;7.356;2022-12-11T13:48:23;6.40;;;5.07;;
19907;SDS011;10116;53.112;7.356;2022-12-11T13:50:51;7.23;;;5.47;;
19907;SDS011;10116;53.112;7.356;2022-12-11T13:53:18;6.50;;;5.80;;
19907;SDS011;10116;53.112;7.356;2022-12-11T13:55:45;5.93;;;5.33;;
19907;SDS011;10116;53.112;7.356;2022-12-11T13:58:19;8.27;;;5.70;;
19907;SDS011;10116;53.112;7.356;2022-12-11T14:00:58;5.43;;;4.90;;
19907;SDS011;10116;53.112;7.356;2022-12-11T14:03:32;6.60;;;6.00;;
19907;SDS011;10116;53.112;7.356;2022-12-11T14:05:59;5.97;;;5.40;;
19907;SDS011;10116;53.112;7.356;2022-12-11T14:08:33;7.47;;;6.10;;
19907;SDS011;10116;53.112;7.356;2022-12-11T14:11:02;6.97;;;5.57;;
19907;SDS011;10116;53.112;7.356;2022-12-11T14:13:35;6.17;;;5.57;;
19907;SDS011;10116;53.112;7.356;2022-12-11T14:16:04;7.07;;;5.73;;
19907;SDS011;10116;53.112;7.356;2022-12-11T14:18:31;7.13;;;6.23;;
19907;SDS011;10116;53.112;7.356;2022-12-11T14:21:03;7.27;;;6.57;;
19907;SDS011;10116;53.112;7.356;2022-12-11T14:23:31;6.03;;;5.30;;
19907;SDS011;10116;53.112;7.356;2022-12-11T14:26:00;6.17;;;5.57;;
19907;SDS011;10116;53.112;7.356;2022-12-11T14:28:28;6.70;;;5.90;;
19907;SDS011;10116;53.112;7.356;2022-12-11T14:31:00;6.97;;;5.77;;
19907;SDS011;10116;53.112;7.356;2022-12-11T14:33:31;7.00;;;6.30;;
19907;SDS011;10116;53.112;7.356;2022-12-11T14:36:01;5.57;;;4.80;;
19907;SDS011;10116;53.112;7.356;2022-12-11T14:38:35;7.10;;;6.40;;
19907;SDS011;10116;53.112;7.356;2022-12-11T14:41:11;9.50;;;6.37;;
19907;SDS011;10116;53.112;7.356;2022-12-11T14:43:42;6.70;;;5.87;;
19907;SDS011;10116;53.112;7.356;2022-12-11T14:46:15;6.43;;;5.67;;
19907;SDS011;10116;53.112;7.356;2022-12-11T14:48:46;8.60;;;5.40;;
19907;SDS011;10116;53.112;7.356;2022-12-11T14:51:16;7.17;;;6.13;;
19907;SDS011;10116;53.112;7.356;2022-12-11T14:53:43;6.83;;;5.83;;
19907;SDS011;10116;53.112;7.356;2022-12-11T14:56:16;8.90;;;6.40;;
19907;SDS011;10116;53.112;7.356;2022-12-11T14:59:05;5.67;;;5.17;;
19907;SDS011;10116;53.112;7.356;2022-12-11T15:01:39;7.60;;;6.03;;
19907;SDS011;10116;53.112;7.356;2022-12-11T15:04:14;7.37;;;5.37;;
19907;SDS011;10116;53.112;7.356;2022-12-11T15:06:51;7.60;;;5.80;;
19907;SDS011;10116;53.112;7.356;2022-12-11T15:11:49;9.70;;;5.70;;
19907;SDS011;10116;53.112;7.356;2022-12-11T15:14:17;7.30;;;5.83;;
19907;SDS011;10116;53.112;7.356;2022-12-11T15:16:45;8.77;;;6.10;;
19907;SDS011;10116;53.112;7.356;2022-12-11T15:19:20;5.53;;;4.90;;
19907;SDS011;10116;53.112;7.356;2022-12-11T15:21:53;7.07;;;5.43;;
19907;SDS011;10116;53.112;7.356;2022-12-11T15:24:35;6.73;;;5.50;;
19907;SDS011;10116;53.112;7.356;2022-12-11T15:27:02;6.03;;;5.40;;
19907;SDS011;10116;53.112;7.356;2022-12-11T15:32:11;12.57;;;5.40;;
19907;SDS011;10116;53.112;7.356;2022-12-11T15:39:45;5.97;;;5.07;;
19907;SDS011;10116;53.112;7.356;2022-12-11T15:42:12;5.67;;;4.90;;
19907;SDS011;10116;53.112;7.356;2022-12-11T15:44:45;5.30;;;4.80;;
19907;SDS011;10116;53.112;7.356;2022-12-11T15:47:12;6.30;;;4.70;;
19907;SDS011;10116;53.112;7.356;2022-12-11T15:49:45;7.70;;;4.60;;
19907;SDS011;10116;53.112;7.356;2022-12-11T15:52:11;6.60;;;5.47;;
19907;SDS011;10116;53.112;7.356;2022-12-11T15:54:36;6.30;;;4.90;;
19907;SDS011;10116;53.112;7.356;2022-12-11T15:57:03;4.50;;;4.10;;
19907;SDS011;10116;53.112;7.356;2022-12-11T15:59:31;5.53;;;4.67;;
19907;SDS011;10116;53.112;7.356;2022-12-11T16:01:57;6.10;;;5.50;;
19907;SDS011;10116;53.112;7.356;2022-12-11T16:04:22;5.00;;;4.47;;
19907;SDS011;10116;53.112;7.356;2022-12-11T16:06:49;5.50;;;4.93;;
19907;SDS011;10116;53.112;7.356;2022-12-11T16:09:15;5.80;;;5.17;;
19907;SDS011;10116;53.112;7.356;2022-12-11T16:11:40;6.10;;;5.13;;
19907;SDS011;10116;53.112;7.356;2022-12-11T16:14:06;5.43;;;4.70;;
19907;SDS011;10116;53.112;7.356;2022-12-11T16:16:31;5.57;;;5.00;;
19907;SDS011;10116;53.112;7.356;2022-12-11T16:18:57;5.77;;;5.07;;
19907;SDS011;10116;53.112;7.356;2022-12-11T16:21:23;6.03;;;4.87;;
19907;SDS011;10116;53.112;7.356;2022-12-11T16:23:48;5.67;;;5.03;;
19907;SDS011;10116;53.112;7.356;2022-12-11T16:26:14;5.63;;;5.03;;
19907;SDS011;10116;53.112;7.356;2022-12-11T16:28:40;5.07;;;4.40;;
19907;SDS011;10116;53.112;7.356;2022-12-11T16:31:10;5.47;;;4.90;;
19907;SDS011;10116;53.112;7.356;2022-12-11T16:33:37;8.77;;;5.30;;
19907;SDS011;10116;53.112;7.356;2022-12-11T16:36:16;9.20;;;5.30;;
19907;SDS011;10116;53.112;7.356;2022-12-11T16:38:46;5.33;;;4.83;;
19907;SDS011;10116;53.112;7.356;2022-12-11T16:41:14;5.20;;;4.70;;
19907;SDS011;10116;53.112;7.356;2022-12-11T16:43:39;5.23;;;4.77;;
19907;SDS011;10116;53.112;7.356;2022-12-11T16:46:05;5.77;;;5.23;;
19907;SDS011;10116;53.112;7.356;2022-12-11T16:48:31;5.50;;;4.73;;
19907;SDS011;10116;53.112;7.356;2022-12-11T16:50:57;5.67;;;5.17;;